sensor_id;sensor_type;location;lat;lon;timestamp;temperature;humidity
80212;DHT22;69530;37.974;23.708;2023-05-07T00:00:17;23.40;37.00
80212;DHT22;69530;37.974;23.708;2023-05-07T00:02:44;23.40;37.10
80212;DHT22;69530;37.974;23.708;2023-05-07T00:05:11;23.40;38.00
80212;DHT22;69530;37.974;23.708;2023-05-07T00:07:37;23.40;37.10
80212;DHT22;69530;37.974;23.708;2023-05-07T00:10:03;23.40;37.00
80212;DHT22;69530;37.974;23.708;2023-05-07T00:12:29;23.40;37.00
80212;DHT22;69530;37.974;23.708;2023-05-07T00:15:00;23.40;37.10
80212;DHT22;69530;37.974;23.708;2023-05-07T00:17:26;23.40;37.10
80212;DHT22;69530;37.974;23.708;2023-05-07T00:19:52;23.40;37.10
80212;DHT22;69530;37.974;23.708;2023-05-07T00:22:17;23.40;37.10
80212;DHT22;69530;37.974;23.708;2023-05-07T00:24:43;23.40;37.10
80212;DHT22;69530;37.974;23.708;2023-05-07T00:27:09;23.40;37.10
80212;DHT22;69530;37.974;23.708;2023-05-07T00:29:34;23.40;37.10
80212;DHT22;69530;37.974;23.708;2023-05-07T00:32:02;23.40;37.10
80212;DHT22;69530;37.974;23.708;2023-05-07T00:34:27;23.40;37.10
80212;DHT22;69530;37.974;23.708;2023-05-07T00:36:53;23.40;37.10
80212;DHT22;69530;37.974;23.708;2023-05-07T00:39:19;23.40;37.10
80212;DHT22;69530;37.974;23.708;2023-05-07T00:41:45;23.40;37.10
80212;DHT22;69530;37.974;23.708;2023-05-07T00:44:11;23.40;37.10
80212;DHT22;69530;37.974;23.708;2023-05-07T00:46:37;23.40;37.10
80212;DHT22;69530;37.974;23.708;2023-05-07T00:49:03;23.40;37.10
80212;DHT22;69530;37.974;23.708;2023-05-07T00:51:30;23.40;37.10
80212;DHT22;69530;37.974;23.708;2023-05-07T00:53:56;23.40;37.10
80212;DHT22;69530;37.974;23.708;2023-05-07T00:56:22;23.40;37.10
80212;DHT22;69530;37.974;23.708;2023-05-07T00:58:49;23.40;37.10
80212;DHT22;69530;37.974;23.708;2023-05-07T01:01:15;23.40;37.10
80212;DHT22;69530;37.974;23.708;2023-05-07T01:03:43;23.40;37.20
80212;DHT22;69530;37.974;23.708;2023-05-07T01:06:10;23.40;37.10
80212;DHT22;69530;37.974;23.708;2023-05-07T01:08:39;23.40;37.20
80212;DHT22;69530;37.974;23.708;2023-05-07T01:11:09;23.40;37.20
80212;DHT22;69530;37.974;23.708;2023-05-07T01:13:52;23.40;37.20
80212;DHT22;69530;37.974;23.708;2023-05-07T01:16:18;23.40;37.30
80212;DHT22;69530;37.974;23.708;2023-05-07T01:18:44;23.40;37.30
80212;DHT22;69530;37.974;23.708;2023-05-07T01:21:11;23.40;37.30
80212;DHT22;69530;37.974;23.708;2023-05-07T01:23:38;23.40;37.20
80212;DHT22;69530;37.974;23.708;2023-05-07T01:26:05;23.40;37.20
80212;DHT22;69530;37.974;23.708;2023-05-07T01:28:30;23.40;37.20
80212;DHT22;69530;37.974;23.708;2023-05-07T01:31:00;23.40;37.20
80212;DHT22;69530;37.974;23.708;2023-05-07T01:33:32;23.40;37.20
80212;DHT22;69530;37.974;23.708;2023-05-07T01:35:59;23.40;37.20
80212;DHT22;69530;37.974;23.708;2023-05-07T01:38:30;23.40;37.20
80212;DHT22;69530;37.974;23.708;2023-05-07T01:40:56;23.40;37.30
80212;DHT22;69530;37.974;23.708;2023-05-07T01:43:22;23.40;37.20
80212;DHT22;69530;37.974;23.708;2023-05-07T01:45:49;23.40;37.20
80212;DHT22;69530;37.974;23.708;2023-05-07T01:48:15;23.40;37.20
80212;DHT22;69530;37.974;23.708;2023-05-07T01:50:42;23.40;37.20
80212;DHT22;69530;37.974;23.708;2023-05-07T01:53:08;23.40;37.30
80212;DHT22;69530;37.974;23.708;2023-05-07T01:55:34;23.40;37.30
80212;DHT22;69530;37.974;23.708;2023-05-07T01:58:02;23.40;37.30
80212;DHT22;69530;37.974;23.708;2023-05-07T02:00:28;23.40;37.30
80212;DHT22;69530;37.974;23.708;2023-05-07T02:02:54;23.40;37.30
80212;DHT22;69530;37.974;23.708;2023-05-07T02:05:20;23.40;37.30
80212;DHT22;69530;37.974;23.708;2023-05-07T02:07:46;23.40;37.30
80212;DHT22;69530;37.974;23.708;2023-05-07T02:10:11;23.40;37.30
80212;DHT22;69530;37.974;23.708;2023-05-07T02:12:37;23.40;37.30
80212;DHT22;69530;37.974;23.708;2023-05-07T02:15:03;23.40;37.30
80212;DHT22;69530;37.974;23.708;2023-05-07T02:17:29;23.40;37.30
80212;DHT22;69530;37.974;23.708;2023-05-07T02:19:57;23.40;37.30
80212;DHT22;69530;37.974;23.708;2023-05-07T02:22:23;23.30;37.20
80212;DHT22;69530;37.974;23.708;2023-05-07T02:24:48;23.40;37.30
80212;DHT22;69530;37.974;23.708;2023-05-07T02:27:14;23.40;37.30
80212;DHT22;69530;37.974;23.708;2023-05-07T02:29:40;23.40;37.40
80212;DHT22;69530;37.974;23.708;2023-05-07T02:32:06;23.40;37.30
80212;DHT22;69530;37.974;23.708;2023-05-07T02:34:31;23.40;37.30
80212;DHT22;69530;37.974;23.708;2023-05-07T02:36:57;23.30;37.30
80212;DHT22;69530;37.974;23.708;2023-05-07T02:39:23;23.40;37.30
80212;DHT22;69530;37.974;23.708;2023-05-07T02:41:48;23.30;37.40
80212;DHT22;69530;37.974;23.708;2023-05-07T02:44:14;23.40;37.40
80212;DHT22;69530;37.974;23.708;2023-05-07T02:46:40;23.40;37.50
80212;DHT22;69530;37.974;23.708;2023-05-07T02:49:05;23.40;37.40
80212;DHT22;69530;37.974;23.708;2023-05-07T02:51:31;23.40;37.40
80212;DHT22;69530;37.974;23.708;2023-05-07T02:53:57;23.40;37.40
80212;DHT22;69530;37.974;23.708;2023-05-07T02:56:23;23.30;37.40
80212;DHT22;69530;37.974;23.708;2023-05-07T02:58:48;23.30;37.40
80212;DHT22;69530;37.974;23.708;2023-05-07T03:01:14;23.30;37.40
80212;DHT22;69530;37.974;23.708;2023-05-07T03:03:40;23.30;37.40
80212;DHT22;69530;37.974;23.708;2023-05-07T03:06:06;23.30;37.40
80212;DHT22;69530;37.974;23.708;2023-05-07T03:08:32;23.30;37.40
80212;DHT22;69530;37.974;23.708;2023-05-07T03:10:58;23.40;37.40
80212;DHT22;69530;37.974;23.708;2023-05-07T03:13:24;23.40;37.50
80212;DHT22;69530;37.974;23.708;2023-05-07T03:15:49;23.30;37.40
80212;DHT22;69530;37.974;23.708;2023-05-07T03:18:15;23.30;37.40
80212;DHT22;69530;37.974;23.708;2023-05-07T03:20:41;23.30;37.40
80212;DHT22;69530;37.974;23.708;2023-05-07T03:23:06;23.30;38.40
80212;DHT22;69530;37.974;23.708;2023-05-07T03:25:32;23.30;37.40
80212;DHT22;69530;37.974;23.708;2023-05-07T03:27:58;23.40;37.40
80212;DHT22;69530;37.974;23.708;2023-05-07T03:30:24;23.40;37.50
80212;DHT22;69530;37.974;23.708;2023-05-07T03:32:50;23.30;37.30
80212;DHT22;69530;37.974;23.708;2023-05-07T03:35:16;23.30;37.30
80212;DHT22;69530;37.974;23.708;2023-05-07T03:37:42;23.30;37.40
80212;DHT22;69530;37.974;23.708;2023-05-07T03:40:08;23.40;37.40
80212;DHT22;69530;37.974;23.708;2023-05-07T03:42:35;23.40;37.30
80212;DHT22;69530;37.974;23.708;2023-05-07T03:45:01;23.40;37.40
80212;DHT22;69530;37.974;23.708;2023-05-07T03:47:27;23.40;37.30
80212;DHT22;69530;37.974;23.708;2023-05-07T03:49:53;23.40;37.30
80212;DHT22;69530;37.974;23.708;2023-05-07T03:52:20;23.40;37.30
80212;DHT22;69530;37.974;23.708;2023-05-07T03:54:49;23.40;37.20
80212;DHT22;69530;37.974;23.708;2023-05-07T03:57:15;23.40;37.10
80212;DHT22;69530;37.974;23.708;2023-05-07T03:59:41;23.40;37.10
80212;DHT22;69530;37.974;23.708;2023-05-07T04:02:06;23.40;37.10
80212;DHT22;69530;37.974;23.708;2023-05-07T04:04:32;23.50;37.10
80212;DHT22;69530;37.974;23.708;2023-05-07T04:06:58;23.50;37.10
80212;DHT22;69530;37.974;23.708;2023-05-07T04:09:25;23.50;37.00
80212;DHT22;69530;37.974;23.708;2023-05-07T04:11:51;23.50;37.00
80212;DHT22;69530;37.974;23.708;2023-05-07T04:14:16;23.50;36.90
80212;DHT22;69530;37.974;23.708;2023-05-07T04:16:42;23.50;36.90
80212;DHT22;69530;37.974;23.708;2023-05-07T04:19:08;23.50;36.90
80212;DHT22;69530;37.974;23.708;2023-05-07T04:21:33;23.60;36.80
80212;DHT22;69530;37.974;23.708;2023-05-07T04:23:59;23.70;36.70
80212;DHT22;69530;37.974;23.708;2023-05-07T04:26:25;23.80;36.50
80212;DHT22;69530;37.974;23.708;2023-05-07T04:28:50;24.00;36.10
80212;DHT22;69530;37.974;23.708;2023-05-07T04:31:16;24.30;35.60
80212;DHT22;69530;37.974;23.708;2023-05-07T04:33:42;24.70;34.80
80212;DHT22;69530;37.974;23.708;2023-05-07T04:36:07;25.10;34.00
80212;DHT22;69530;37.974;23.708;2023-05-07T04:38:33;25.60;33.40
80212;DHT22;69530;37.974;23.708;2023-05-07T04:41:06;26.00;32.80
80212;DHT22;69530;37.974;23.708;2023-05-07T04:43:31;26.40;32.20
80212;DHT22;69530;37.974;23.708;2023-05-07T04:45:57;26.70;31.70
80212;DHT22;69530;37.974;23.708;2023-05-07T04:48:23;27.00;31.20
80212;DHT22;69530;37.974;23.708;2023-05-07T04:50:52;27.30;30.80
80212;DHT22;69530;37.974;23.708;2023-05-07T04:53:18;27.40;30.30
80212;DHT22;69530;37.974;23.708;2023-05-07T04:55:44;27.40;30.20
80212;DHT22;69530;37.974;23.708;2023-05-07T04:58:11;27.20;30.30
80212;DHT22;69530;37.974;23.708;2023-05-07T05:00:37;26.90;30.70
80212;DHT22;69530;37.974;23.708;2023-05-07T05:03:04;26.60;31.10
80212;DHT22;69530;37.974;23.708;2023-05-07T05:05:30;26.40;31.70
80212;DHT22;69530;37.974;23.708;2023-05-07T05:07:56;26.10;32.00
80212;DHT22;69530;37.974;23.708;2023-05-07T05:10:22;25.90;32.30
80212;DHT22;69530;37.974;23.708;2023-05-07T05:12:47;25.70;32.60
80212;DHT22;69530;37.974;23.708;2023-05-07T05:15:13;25.60;32.90
80212;DHT22;69530;37.974;23.708;2023-05-07T05:17:39;25.50;33.10
80212;DHT22;69530;37.974;23.708;2023-05-07T05:20:05;25.40;33.30
80212;DHT22;69530;37.974;23.708;2023-05-07T05:22:32;25.40;33.50
80212;DHT22;69530;37.974;23.708;2023-05-07T05:24:57;25.30;33.60
80212;DHT22;69530;37.974;23.708;2023-05-07T05:27:23;25.20;33.70
80212;DHT22;69530;37.974;23.708;2023-05-07T05:29:49;25.20;33.90
80212;DHT22;69530;37.974;23.708;2023-05-07T05:32:15;25.10;33.80
80212;DHT22;69530;37.974;23.708;2023-05-07T05:34:40;25.10;33.90
80212;DHT22;69530;37.974;23.708;2023-05-07T05:37:06;25.10;34.00
80212;DHT22;69530;37.974;23.708;2023-05-07T05:39:32;25.10;34.10
80212;DHT22;69530;37.974;23.708;2023-05-07T05:41:58;25.10;34.10
80212;DHT22;69530;37.974;23.708;2023-05-07T05:44:23;25.10;34.10
80212;DHT22;69530;37.974;23.708;2023-05-07T05:46:49;25.10;34.10
80212;DHT22;69530;37.974;23.708;2023-05-07T05:49:15;25.10;34.10
80212;DHT22;69530;37.974;23.708;2023-05-07T05:51:41;25.10;34.10
80212;DHT22;69530;37.974;23.708;2023-05-07T05:54:06;25.10;34.10
80212;DHT22;69530;37.974;23.708;2023-05-07T05:56:33;25.10;34.10
80212;DHT22;69530;37.974;23.708;2023-05-07T05:58:58;25.10;34.10
80212;DHT22;69530;37.974;23.708;2023-05-07T06:01:25;25.10;34.10
80212;DHT22;69530;37.974;23.708;2023-05-07T06:03:52;25.10;34.10
80212;DHT22;69530;37.974;23.708;2023-05-07T06:06:17;25.10;34.10
80212;DHT22;69530;37.974;23.708;2023-05-07T06:08:43;25.10;34.20
80212;DHT22;69530;37.974;23.708;2023-05-07T06:11:09;25.10;34.10
80212;DHT22;69530;37.974;23.708;2023-05-07T06:13:35;25.10;34.10
80212;DHT22;69530;37.974;23.708;2023-05-07T06:16:00;25.10;34.10
80212;DHT22;69530;37.974;23.708;2023-05-07T06:18:26;25.10;34.10
80212;DHT22;69530;37.974;23.708;2023-05-07T06:20:52;25.10;34.10
80212;DHT22;69530;37.974;23.708;2023-05-07T06:23:18;25.10;34.20
80212;DHT22;69530;37.974;23.708;2023-05-07T06:25:50;25.10;34.30
80212;DHT22;69530;37.974;23.708;2023-05-07T06:28:16;25.10;34.20
80212;DHT22;69530;37.974;23.708;2023-05-07T06:30:42;25.10;34.30
80212;DHT22;69530;37.974;23.708;2023-05-07T06:33:07;25.10;34.30
80212;DHT22;69530;37.974;23.708;2023-05-07T06:35:33;25.10;34.30
80212;DHT22;69530;37.974;23.708;2023-05-07T06:37:59;25.10;34.30
80212;DHT22;69530;37.974;23.708;2023-05-07T06:40:26;25.10;34.30
80212;DHT22;69530;37.974;23.708;2023-05-07T06:42:51;25.10;34.30
80212;DHT22;69530;37.974;23.708;2023-05-07T06:45:17;25.10;34.30
80212;DHT22;69530;37.974;23.708;2023-05-07T06:47:43;25.10;34.30
80212;DHT22;69530;37.974;23.708;2023-05-07T06:50:09;25.00;34.20
80212;DHT22;69530;37.974;23.708;2023-05-07T06:52:35;25.00;34.20
80212;DHT22;69530;37.974;23.708;2023-05-07T06:55:01;25.00;34.20
80212;DHT22;69530;37.974;23.708;2023-05-07T06:57:26;25.00;34.20
80212;DHT22;69530;37.974;23.708;2023-05-07T06:59:52;25.00;34.20
80212;DHT22;69530;37.974;23.708;2023-05-07T07:02:18;25.00;34.20
80212;DHT22;69530;37.974;23.708;2023-05-07T07:04:44;24.90;34.20
80212;DHT22;69530;37.974;23.708;2023-05-07T07:07:10;24.90;34.20
80212;DHT22;69530;37.974;23.708;2023-05-07T07:09:36;24.90;34.20
80212;DHT22;69530;37.974;23.708;2023-05-07T07:12:02;24.90;34.20
80212;DHT22;69530;37.974;23.708;2023-05-07T07:14:28;24.90;34.20
80212;DHT22;69530;37.974;23.708;2023-05-07T07:16:53;24.90;34.20
80212;DHT22;69530;37.974;23.708;2023-05-07T07:19:19;24.80;34.10
80212;DHT22;69530;37.974;23.708;2023-05-07T07:21:45;24.90;34.20
80212;DHT22;69530;37.974;23.708;2023-05-07T07:24:12;24.90;34.20
80212;DHT22;69530;37.974;23.708;2023-05-07T07:26:38;24.80;34.10
80212;DHT22;69530;37.974;23.708;2023-05-07T07:29:05;24.80;34.10
80212;DHT22;69530;37.974;23.708;2023-05-07T07:31:32;24.80;34.10
80212;DHT22;69530;37.974;23.708;2023-05-07T07:33:58;24.80;34.20
80212;DHT22;69530;37.974;23.708;2023-05-07T07:36:23;24.70;34.10
80212;DHT22;69530;37.974;23.708;2023-05-07T07:38:49;24.80;34.10
80212;DHT22;69530;37.974;23.708;2023-05-07T07:41:15;24.70;34.10
80212;DHT22;69530;37.974;23.708;2023-05-07T07:43:40;24.70;34.10
80212;DHT22;69530;37.974;23.708;2023-05-07T07:46:06;24.70;34.10
80212;DHT22;69530;37.974;23.708;2023-05-07T07:48:32;24.70;34.10
80212;DHT22;69530;37.974;23.708;2023-05-07T07:50:57;24.70;34.00
80212;DHT22;69530;37.974;23.708;2023-05-07T07:53:23;24.70;34.10
80212;DHT22;69530;37.974;23.708;2023-05-07T07:55:49;24.70;34.20
80212;DHT22;69530;37.974;23.708;2023-05-07T07:58:14;24.70;34.10
80212;DHT22;69530;37.974;23.708;2023-05-07T08:00:40;24.70;34.10
80212;DHT22;69530;37.974;23.708;2023-05-07T08:03:09;24.60;34.10
80212;DHT22;69530;37.974;23.708;2023-05-07T08:05:35;24.60;34.00
80212;DHT22;69530;37.974;23.708;2023-05-07T08:08:01;24.60;34.10
80212;DHT22;69530;37.974;23.708;2023-05-07T08:10:27;24.60;34.00
80212;DHT22;69530;37.974;23.708;2023-05-07T08:12:52;24.60;34.10
80212;DHT22;69530;37.974;23.708;2023-05-07T08:15:18;24.60;34.10
80212;DHT22;69530;37.974;23.708;2023-05-07T08:17:45;24.60;35.20
80212;DHT22;69530;37.974;23.708;2023-05-07T08:20:11;24.50;34.10
80212;DHT22;69530;37.974;23.708;2023-05-07T08:22:37;24.50;34.10
80212;DHT22;69530;37.974;23.708;2023-05-07T08:25:03;24.50;34.10
80212;DHT22;69530;37.974;23.708;2023-05-07T08:27:29;24.50;34.20
80212;DHT22;69530;37.974;23.708;2023-05-07T08:29:54;24.50;34.10
80212;DHT22;69530;37.974;23.708;2023-05-07T08:32:21;24.50;34.10
80212;DHT22;69530;37.974;23.708;2023-05-07T08:34:47;24.50;34.10
80212;DHT22;69530;37.974;23.708;2023-05-07T08:37:13;24.50;34.20
80212;DHT22;69530;37.974;23.708;2023-05-07T08:39:39;24.50;34.10
80212;DHT22;69530;37.974;23.708;2023-05-07T08:42:04;24.50;34.10
80212;DHT22;69530;37.974;23.708;2023-05-07T08:44:33;24.40;34.10
80212;DHT22;69530;37.974;23.708;2023-05-07T08:47:01;24.40;34.20
80212;DHT22;69530;37.974;23.708;2023-05-07T08:49:30;24.40;34.20
80212;DHT22;69530;37.974;23.708;2023-05-07T08:51:56;24.40;34.20
80212;DHT22;69530;37.974;23.708;2023-05-07T08:54:22;24.40;34.20
80212;DHT22;69530;37.974;23.708;2023-05-07T08:56:48;24.40;34.20
80212;DHT22;69530;37.974;23.708;2023-05-07T08:59:14;24.40;34.30
80212;DHT22;69530;37.974;23.708;2023-05-07T09:01:39;24.40;34.20
80212;DHT22;69530;37.974;23.708;2023-05-07T09:04:05;24.40;34.20
80212;DHT22;69530;37.974;23.708;2023-05-07T09:06:33;24.40;34.30
80212;DHT22;69530;37.974;23.708;2023-05-07T09:08:58;24.40;34.30
80212;DHT22;69530;37.974;23.708;2023-05-07T09:11:26;24.40;34.30
80212;DHT22;69530;37.974;23.708;2023-05-07T09:13:56;24.30;34.30
80212;DHT22;69530;37.974;23.708;2023-05-07T09:16:28;24.30;34.30
80212;DHT22;69530;37.974;23.708;2023-05-07T09:18:57;24.30;34.30
80212;DHT22;69530;37.974;23.708;2023-05-07T09:21:23;24.30;34.30
80212;DHT22;69530;37.974;23.708;2023-05-07T09:23:52;24.30;34.30
80212;DHT22;69530;37.974;23.708;2023-05-07T09:26:21;24.30;34.40
80212;DHT22;69530;37.974;23.708;2023-05-07T09:28:47;24.30;34.40
80212;DHT22;69530;37.974;23.708;2023-05-07T09:31:12;24.30;34.40
80212;DHT22;69530;37.974;23.708;2023-05-07T09:33:39;24.30;34.40
80212;DHT22;69530;37.974;23.708;2023-05-07T09:36:06;24.30;34.40
80212;DHT22;69530;37.974;23.708;2023-05-07T09:38:33;24.30;34.40
80212;DHT22;69530;37.974;23.708;2023-05-07T09:41:10;24.30;34.40
80212;DHT22;69530;37.974;23.708;2023-05-07T09:43:37;24.30;34.40
80212;DHT22;69530;37.974;23.708;2023-05-07T09:46:13;24.30;34.40
80212;DHT22;69530;37.974;23.708;2023-05-07T09:48:40;24.30;34.40
80212;DHT22;69530;37.974;23.708;2023-05-07T09:51:21;24.30;34.40
80212;DHT22;69530;37.974;23.708;2023-05-07T09:53:48;24.30;34.40
80212;DHT22;69530;37.974;23.708;2023-05-07T09:56:16;24.30;34.40
80212;DHT22;69530;37.974;23.708;2023-05-07T09:58:43;24.30;34.30
80212;DHT22;69530;37.974;23.708;2023-05-07T10:01:11;24.30;34.30
80212;DHT22;69530;37.974;23.708;2023-05-07T10:03:40;24.30;34.30
80212;DHT22;69530;37.974;23.708;2023-05-07T10:06:09;24.30;34.30
80212;DHT22;69530;37.974;23.708;2023-05-07T10:08:36;24.30;34.30
80212;DHT22;69530;37.974;23.708;2023-05-07T10:11:04;24.30;35.20
80212;DHT22;69530;37.974;23.708;2023-05-07T10:13:30;24.30;34.30
80212;DHT22;69530;37.974;23.708;2023-05-07T10:15:57;24.20;34.20
80212;DHT22;69530;37.974;23.708;2023-05-07T10:18:23;24.20;34.20
80212;DHT22;69530;37.974;23.708;2023-05-07T10:20:56;24.20;34.20
80212;DHT22;69530;37.974;23.708;2023-05-07T10:23:26;24.20;34.20
80212;DHT22;69530;37.974;23.708;2023-05-07T10:25:53;24.20;34.20
80212;DHT22;69530;37.974;23.708;2023-05-07T10:28:20;24.20;34.20
80212;DHT22;69530;37.974;23.708;2023-05-07T10:33:56;24.20;34.10
80212;DHT22;69530;37.974;23.708;2023-05-07T10:36:22;24.20;34.20
80212;DHT22;69530;37.974;23.708;2023-05-07T10:38:49;24.20;34.20
80212;DHT22;69530;37.974;23.708;2023-05-07T10:41:15;24.20;34.20
80212;DHT22;69530;37.974;23.708;2023-05-07T10:43:44;24.20;34.20
80212;DHT22;69530;37.974;23.708;2023-05-07T10:46:17;24.20;34.10
80212;DHT22;69530;37.974;23.708;2023-05-07T10:51:32;24.20;34.20
80212;DHT22;69530;37.974;23.708;2023-05-07T10:56:45;24.20;34.20
80212;DHT22;69530;37.974;23.708;2023-05-07T11:04:19;24.20;34.20
80212;DHT22;69530;37.974;23.708;2023-05-07T11:15:06;24.20;34.10
80212;DHT22;69530;37.974;23.708;2023-05-07T11:17:33;24.20;34.20
80212;DHT22;69530;37.974;23.708;2023-05-07T11:20:01;24.20;34.20
80212;DHT22;69530;37.974;23.708;2023-05-07T11:25:00;24.20;34.10
80212;DHT22;69530;37.974;23.708;2023-05-07T11:27:26;24.20;34.20
80212;DHT22;69530;37.974;23.708;2023-05-07T11:29:52;24.20;34.20
80212;DHT22;69530;37.974;23.708;2023-05-07T11:32:25;24.20;34.20
80212;DHT22;69530;37.974;23.708;2023-05-07T11:34:53;24.20;34.20
80212;DHT22;69530;37.974;23.708;2023-05-07T11:37:20;24.20;34.20
80212;DHT22;69530;37.974;23.708;2023-05-07T11:39:46;24.20;34.20
80212;DHT22;69530;37.974;23.708;2023-05-07T11:42:32;24.20;34.20
80212;DHT22;69530;37.974;23.708;2023-05-07T11:44:58;24.20;34.10
80212;DHT22;69530;37.974;23.708;2023-05-07T11:47:24;24.20;35.10
80212;DHT22;69530;37.974;23.708;2023-05-07T11:49:54;24.20;34.10
80212;DHT22;69530;37.974;23.708;2023-05-07T11:52:21;24.20;34.10
80212;DHT22;69530;37.974;23.708;2023-05-07T11:54:55;24.20;34.10
80212;DHT22;69530;37.974;23.708;2023-05-07T11:57:21;24.20;34.00
80212;DHT22;69530;37.974;23.708;2023-05-07T11:59:48;24.20;34.10
80212;DHT22;69530;37.974;23.708;2023-05-07T12:02:18;24.20;34.00
80212;DHT22;69530;37.974;23.708;2023-05-07T12:04:44;24.10;34.00
80212;DHT22;69530;37.974;23.708;2023-05-07T12:07:14;24.20;34.00
80212;DHT22;69530;37.974;23.708;2023-05-07T12:09:44;24.20;34.00
80212;DHT22;69530;37.974;23.708;2023-05-07T12:12:11;24.20;34.10
80212;DHT22;69530;37.974;23.708;2023-05-07T12:14:44;24.20;33.90
80212;DHT22;69530;37.974;23.708;2023-05-07T12:17:10;24.10;33.90
80212;DHT22;69530;37.974;23.708;2023-05-07T12:19:36;24.10;33.90
80212;DHT22;69530;37.974;23.708;2023-05-07T12:22:03;24.10;34.00
80212;DHT22;69530;37.974;23.708;2023-05-07T12:24:41;24.10;34.00
80212;DHT22;69530;37.974;23.708;2023-05-07T12:27:06;24.10;34.10
80212;DHT22;69530;37.974;23.708;2023-05-07T12:29:32;24.10;34.00
80212;DHT22;69530;37.974;23.708;2023-05-07T12:31:58;24.10;34.00
80212;DHT22;69530;37.974;23.708;2023-05-07T12:34:24;24.10;34.00
80212;DHT22;69530;37.974;23.708;2023-05-07T12:36:49;24.10;34.10
80212;DHT22;69530;37.974;23.708;2023-05-07T12:39:15;24.10;34.00
80212;DHT22;69530;37.974;23.708;2023-05-07T12:41:59;24.10;34.00
80212;DHT22;69530;37.974;23.708;2023-05-07T12:44:29;24.20;34.10
80212;DHT22;69530;37.974;23.708;2023-05-07T12:46:55;24.10;34.00
80212;DHT22;69530;37.974;23.708;2023-05-07T12:49:21;24.10;34.00
80212;DHT22;69530;37.974;23.708;2023-05-07T12:51:48;24.10;34.10
80212;DHT22;69530;37.974;23.708;2023-05-07T12:54:34;24.10;34.00
80212;DHT22;69530;37.974;23.708;2023-05-07T12:57:07;24.10;34.00
80212;DHT22;69530;37.974;23.708;2023-05-07T13:01:58;24.10;34.00
80212;DHT22;69530;37.974;23.708;2023-05-07T13:04:25;24.10;34.00
80212;DHT22;69530;37.974;23.708;2023-05-07T13:06:50;24.10;33.90
80212;DHT22;69530;37.974;23.708;2023-05-07T13:09:16;24.10;33.90
80212;DHT22;69530;37.974;23.708;2023-05-07T13:11:41;24.10;33.90
80212;DHT22;69530;37.974;23.708;2023-05-07T13:14:07;24.10;33.80
80212;DHT22;69530;37.974;23.708;2023-05-07T13:16:33;24.10;34.90
80212;DHT22;69530;37.974;23.708;2023-05-07T13:18:59;24.10;33.90
80212;DHT22;69530;37.974;23.708;2023-05-07T13:21:25;24.10;33.90
80212;DHT22;69530;37.974;23.708;2023-05-07T13:23:52;24.10;33.80
80212;DHT22;69530;37.974;23.708;2023-05-07T13:26:18;24.10;33.80
80212;DHT22;69530;37.974;23.708;2023-05-07T13:28:44;24.10;33.80
80212;DHT22;69530;37.974;23.708;2023-05-07T13:31:09;24.10;33.90
80212;DHT22;69530;37.974;23.708;2023-05-07T13:33:35;24.10;33.80
80212;DHT22;69530;37.974;23.708;2023-05-07T13:36:02;24.10;33.80
80212;DHT22;69530;37.974;23.708;2023-05-07T13:38:30;24.10;33.80
80212;DHT22;69530;37.974;23.708;2023-05-07T13:40:55;24.10;33.80
80212;DHT22;69530;37.974;23.708;2023-05-07T13:43:21;24.10;33.80
80212;DHT22;69530;37.974;23.708;2023-05-07T13:45:47;24.10;33.70
80212;DHT22;69530;37.974;23.708;2023-05-07T13:48:12;24.10;33.80
80212;DHT22;69530;37.974;23.708;2023-05-07T13:50:38;24.10;33.70
80212;DHT22;69530;37.974;23.708;2023-05-07T13:53:04;24.10;33.70
80212;DHT22;69530;37.974;23.708;2023-05-07T13:55:30;24.10;33.70
80212;DHT22;69530;37.974;23.708;2023-05-07T13:57:57;24.10;33.60
80212;DHT22;69530;37.974;23.708;2023-05-07T14:00:27;24.10;33.70
80212;DHT22;69530;37.974;23.708;2023-05-07T14:02:53;24.10;33.60
80212;DHT22;69530;37.974;23.708;2023-05-07T14:05:19;24.10;33.60
80212;DHT22;69530;37.974;23.708;2023-05-07T14:07:45;24.10;33.60
80212;DHT22;69530;37.974;23.708;2023-05-07T14:10:11;24.10;33.60
80212;DHT22;69530;37.974;23.708;2023-05-07T14:12:37;24.10;33.60
80212;DHT22;69530;37.974;23.708;2023-05-07T14:15:03;24.10;33.60
80212;DHT22;69530;37.974;23.708;2023-05-07T14:17:29;24.10;33.60
80212;DHT22;69530;37.974;23.708;2023-05-07T14:19:54;24.10;33.60
80212;DHT22;69530;37.974;23.708;2023-05-07T14:22:21;24.10;33.60
80212;DHT22;69530;37.974;23.708;2023-05-07T14:24:48;24.10;33.60
80212;DHT22;69530;37.974;23.708;2023-05-07T14:27:13;24.10;33.60
80212;DHT22;69530;37.974;23.708;2023-05-07T14:29:39;24.10;33.60
80212;DHT22;69530;37.974;23.708;2023-05-07T14:32:05;24.10;33.60
80212;DHT22;69530;37.974;23.708;2023-05-07T14:34:31;24.10;33.60
80212;DHT22;69530;37.974;23.708;2023-05-07T14:36:59;24.10;33.50
80212;DHT22;69530;37.974;23.708;2023-05-07T14:39:25;24.10;33.50
80212;DHT22;69530;37.974;23.708;2023-05-07T14:41:51;24.10;33.50
80212;DHT22;69530;37.974;23.708;2023-05-07T14:44:17;24.10;33.50
80212;DHT22;69530;37.974;23.708;2023-05-07T14:46:42;24.10;33.50
80212;DHT22;69530;37.974;23.708;2023-05-07T14:49:08;24.10;33.60
80212;DHT22;69530;37.974;23.708;2023-05-07T14:51:43;24.10;33.50
80212;DHT22;69530;37.974;23.708;2023-05-07T14:54:09;24.10;33.50
80212;DHT22;69530;37.974;23.708;2023-05-07T14:56:35;24.10;33.50
80212;DHT22;69530;37.974;23.708;2023-05-07T14:59:02;24.10;33.50
80212;DHT22;69530;37.974;23.708;2023-05-07T15:01:28;24.10;33.40
80212;DHT22;69530;37.974;23.708;2023-05-07T15:03:54;24.10;33.50
80212;DHT22;69530;37.974;23.708;2023-05-07T15:06:21;24.10;34.40
80212;DHT22;69530;37.974;23.708;2023-05-07T15:08:47;24.10;33.40
80212;DHT22;69530;37.974;23.708;2023-05-07T15:11:14;24.10;33.40
80212;DHT22;69530;37.974;23.708;2023-05-07T15:13:42;24.10;33.40
80212;DHT22;69530;37.974;23.708;2023-05-07T15:16:08;24.10;33.40
80212;DHT22;69530;37.974;23.708;2023-05-07T15:18:34;24.10;33.30
80212;DHT22;69530;37.974;23.708;2023-05-07T15:20:59;24.10;33.20
80212;DHT22;69530;37.974;23.708;2023-05-07T15:23:25;24.10;33.30
80212;DHT22;69530;37.974;23.708;2023-05-07T15:25:52;24.10;33.30
80212;DHT22;69530;37.974;23.708;2023-05-07T15:28:18;24.10;33.20
80212;DHT22;69530;37.974;23.708;2023-05-07T15:30:43;24.10;33.20
80212;DHT22;69530;37.974;23.708;2023-05-07T15:33:09;24.10;33.40
80212;DHT22;69530;37.974;23.708;2023-05-07T15:35:35;24.10;33.30
80212;DHT22;69530;37.974;23.708;2023-05-07T15:38:01;24.10;33.30